sensor_id;sensor_type;location;lat;lon;timestamp;P1;durP1;ratioP1;P2;durP2;ratioP2
81841;SDS011;71284;50.918;7.092;2023-10-08T00:01:36;4.93;;;2.97;;
81841;SDS011;71284;50.918;7.092;2023-10-08T00:04:02;4.67;;;3.13;;
81841;SDS011;71284;50.918;7.092;2023-10-08T00:06:29;5.23;;;3.57;;
81841;SDS011;71284;50.918;7.092;2023-10-08T00:08:55;9.17;;;5.17;;
81841;SDS011;71284;50.918;7.092;2023-10-08T00:11:22;10.30;;;5.93;;
81841;SDS011;71284;50.918;7.092;2023-10-08T00:13:49;12.67;;;5.27;;
81841;SDS011;71284;50.918;7.092;2023-10-08T00:16:16;4.67;;;3.33;;
81841;SDS011;71284;50.918;7.092;2023-10-08T00:18:43;7.80;;;3.07;;
81841;SDS011;71284;50.918;7.092;2023-10-08T00:21:09;9.00;;;2.60;;
81841;SDS011;71284;50.918;7.092;2023-10-08T00:23:43;6.30;;;2.70;;
81841;SDS011;71284;50.918;7.092;2023-10-08T00:26:09;3.63;;;2.50;;
81841;SDS011;71284;50.918;7.092;2023-10-08T00:28:35;7.97;;;2.80;;
81841;SDS011;71284;50.918;7.092;2023-10-08T00:31:02;4.13;;;2.83;;
81841;SDS011;71284;50.918;7.092;2023-10-08T00:33:31;9.70;;;3.47;;
81841;SDS011;71284;50.918;7.092;2023-10-08T00:35:58;4.80;;;3.23;;
81841;SDS011;71284;50.918;7.092;2023-10-08T00:38:24;5.13;;;3.17;;
81841;SDS011;71284;50.918;7.092;2023-10-08T00:40:51;6.37;;;2.80;;
81841;SDS011;71284;50.918;7.092;2023-10-08T00:45:58;3.57;;;2.70;;
81841;SDS011;71284;50.918;7.092;2023-10-08T00:48:25;4.37;;;2.53;;
81841;SDS011;71284;50.918;7.092;2023-10-08T00:50:51;6.30;;;3.00;;
81841;SDS011;71284;50.918;7.092;2023-10-08T00:53:17;11.53;;;2.93;;
81841;SDS011;71284;50.918;7.092;2023-10-08T00:55:44;4.17;;;2.57;;
81841;SDS011;71284;50.918;7.092;2023-10-08T00:58:11;3.30;;;3.00;;
81841;SDS011;71284;50.918;7.092;2023-10-08T01:00:37;7.17;;;3.67;;
81841;SDS011;71284;50.918;7.092;2023-10-08T01:03:05;4.63;;;3.20;;
81841;SDS011;71284;50.918;7.092;2023-10-08T01:05:30;5.77;;;3.53;;
81841;SDS011;71284;50.918;7.092;2023-10-08T01:08:17;4.43;;;2.60;;
81841;SDS011;71284;50.918;7.092;2023-10-08T01:10:44;3.67;;;3.33;;
81841;SDS011;71284;50.918;7.092;2023-10-08T01:13:11;3.10;;;2.80;;
81841;SDS011;71284;50.918;7.092;2023-10-08T01:15:37;4.30;;;2.77;;
81841;SDS011;71284;50.918;7.092;2023-10-08T01:18:04;5.60;;;2.63;;
81841;SDS011;71284;50.918;7.092;2023-10-08T01:20:30;6.63;;;3.40;;
81841;SDS011;71284;50.918;7.092;2023-10-08T01:23:04;6.50;;;2.80;;
81841;SDS011;71284;50.918;7.092;2023-10-08T01:25:33;10.00;;;3.10;;
81841;SDS011;71284;50.918;7.092;2023-10-08T01:27:59;3.43;;;3.13;;
81841;SDS011;71284;50.918;7.092;2023-10-08T01:30:27;4.20;;;2.70;;
81841;SDS011;71284;50.918;7.092;2023-10-08T01:32:53;5.10;;;3.93;;
81841;SDS011;71284;50.918;7.092;2023-10-08T01:35:20;5.07;;;2.87;;
81841;SDS011;71284;50.918;7.092;2023-10-08T01:37:49;6.17;;;3.30;;
81841;SDS011;71284;50.918;7.092;2023-10-08T01:40:15;5.57;;;2.30;;
81841;SDS011;71284;50.918;7.092;2023-10-08T01:42:42;7.40;;;3.57;;
81841;SDS011;71284;50.918;7.092;2023-10-08T01:45:08;5.53;;;3.07;;
81841;SDS011;71284;50.918;7.092;2023-10-08T01:47:35;3.90;;;3.10;;
81841;SDS011;71284;50.918;7.092;2023-10-08T01:50:02;5.30;;;3.30;;
81841;SDS011;71284;50.918;7.092;2023-10-08T01:52:30;7.07;;;2.80;;
81841;SDS011;71284;50.918;7.092;2023-10-08T01:54:57;5.93;;;3.37;;
81841;SDS011;71284;50.918;7.092;2023-10-08T01:57:23;7.60;;;3.27;;
81841;SDS011;71284;50.918;7.092;2023-10-08T01:59:50;4.53;;;2.47;;
81841;SDS011;71284;50.918;7.092;2023-10-08T02:02:16;9.70;;;3.23;;
81841;SDS011;71284;50.918;7.092;2023-10-08T02:04:43;2.90;;;2.70;;
81841;SDS011;71284;50.918;7.092;2023-10-08T02:07:10;3.80;;;2.77;;
81841;SDS011;71284;50.918;7.092;2023-10-08T02:09:38;3.77;;;3.10;;
81841;SDS011;71284;50.918;7.092;2023-10-08T02:12:05;4.37;;;2.50;;
81841;SDS011;71284;50.918;7.092;2023-10-08T02:14:31;8.03;;;2.70;;
81841;SDS011;71284;50.918;7.092;2023-10-08T02:16:58;6.20;;;3.40;;
81841;SDS011;71284;50.918;7.092;2023-10-08T02:19:24;4.30;;;3.10;;
81841;SDS011;71284;50.918;7.092;2023-10-08T02:21:53;4.13;;;2.43;;
81841;SDS011;71284;50.918;7.092;2023-10-08T02:24:20;4.07;;;3.13;;
81841;SDS011;71284;50.918;7.092;2023-10-08T02:26:46;9.90;;;3.30;;
81841;SDS011;71284;50.918;7.092;2023-10-08T02:29:13;5.60;;;2.63;;
81841;SDS011;71284;50.918;7.092;2023-10-08T02:31:39;7.50;;;3.43;;
81841;SDS011;71284;50.918;7.092;2023-10-08T02:34:06;12.13;;;2.87;;
81841;SDS011;71284;50.918;7.092;2023-10-08T02:36:34;7.00;;;3.00;;
81841;SDS011;71284;50.918;7.092;2023-10-08T02:38:59;6.53;;;2.33;;
81841;SDS011;71284;50.918;7.092;2023-10-08T02:41:26;5.70;;;3.00;;
81841;SDS011;71284;50.918;7.092;2023-10-08T02:43:53;9.03;;;3.23;;
81841;SDS011;71284;50.918;7.092;2023-10-08T02:46:19;4.73;;;3.83;;
81841;SDS011;71284;50.918;7.092;2023-10-08T02:48:46;4.60;;;2.50;;
81841;SDS011;71284;50.918;7.092;2023-10-08T02:51:12;6.37;;;3.57;;
81841;SDS011;71284;50.918;7.092;2023-10-08T02:53:39;5.13;;;2.93;;
81841;SDS011;71284;50.918;7.092;2023-10-08T02:56:08;5.80;;;3.73;;
81841;SDS011;71284;50.918;7.092;2023-10-08T02:58:35;6.00;;;2.93;;
81841;SDS011;71284;50.918;7.092;2023-10-08T03:01:01;5.40;;;3.40;;
81841;SDS011;71284;50.918;7.092;2023-10-08T03:03:28;5.93;;;3.67;;
81841;SDS011;71284;50.918;7.092;2023-10-08T03:05:54;3.83;;;2.93;;
81841;SDS011;71284;50.918;7.092;2023-10-08T03:08:21;3.70;;;3.40;;
81841;SDS011;71284;50.918;7.092;2023-10-08T03:10:48;7.27;;;3.23;;
81841;SDS011;71284;50.918;7.092;2023-10-08T03:13:15;3.80;;;3.10;;
81841;SDS011;71284;50.918;7.092;2023-10-08T03:15:42;3.17;;;2.60;;
81841;SDS011;71284;50.918;7.092;2023-10-08T03:18:13;4.37;;;2.40;;
81841;SDS011;71284;50.918;7.092;2023-10-08T03:20:40;6.93;;;2.80;;
81841;SDS011;71284;50.918;7.092;2023-10-08T03:23:09;3.07;;;2.87;;
81841;SDS011;71284;50.918;7.092;2023-10-08T03:25:55;5.87;;;3.37;;
81841;SDS011;71284;50.918;7.092;2023-10-08T03:28:32;2.90;;;2.50;;
81841;SDS011;71284;50.918;7.092;2023-10-08T03:30:59;7.80;;;3.43;;
81841;SDS011;71284;50.918;7.092;2023-10-08T03:33:29;5.17;;;3.03;;
81841;SDS011;71284;50.918;7.092;2023-10-08T03:35:56;5.73;;;3.87;;
81841;SDS011;71284;50.918;7.092;2023-10-08T03:38:22;7.70;;;3.60;;
81841;SDS011;71284;50.918;7.092;2023-10-08T03:40:54;3.23;;;2.87;;
81841;SDS011;71284;50.918;7.092;2023-10-08T03:43:20;7.50;;;2.70;;
81841;SDS011;71284;50.918;7.092;2023-10-08T03:45:47;6.63;;;3.00;;
81841;SDS011;71284;50.918;7.092;2023-10-08T03:48:17;6.13;;;3.33;;
81841;SDS011;71284;50.918;7.092;2023-10-08T03:50:44;3.37;;;2.50;;
81841;SDS011;71284;50.918;7.092;2023-10-08T03:53:10;4.50;;;3.00;;
81841;SDS011;71284;50.918;7.092;2023-10-08T03:55:38;6.40;;;2.83;;
81841;SDS011;71284;50.918;7.092;2023-10-08T03:58:03;3.90;;;3.10;;
81841;SDS011;71284;50.918;7.092;2023-10-08T04:00:30;3.17;;;2.87;;
81841;SDS011;71284;50.918;7.092;2023-10-08T04:02:58;5.27;;;3.07;;
81841;SDS011;71284;50.918;7.092;2023-10-08T04:05:26;10.63;;;3.40;;
81841;SDS011;71284;50.918;7.092;2023-10-08T04:07:53;5.20;;;2.77;;
81841;SDS011;71284;50.918;7.092;2023-10-08T04:10:21;3.50;;;2.90;;
81841;SDS011;71284;50.918;7.092;2023-10-08T04:12:53;3.53;;;3.20;;
81841;SDS011;71284;50.918;7.092;2023-10-08T04:15:20;4.07;;;2.63;;
81841;SDS011;71284;50.918;7.092;2023-10-08T04:17:46;5.87;;;3.30;;
81841;SDS011;71284;50.918;7.092;2023-10-08T04:20:14;6.80;;;2.70;;
81841;SDS011;71284;50.918;7.092;2023-10-08T04:22:46;4.03;;;2.70;;
81841;SDS011;71284;50.918;7.092;2023-10-08T04:25:12;5.83;;;2.77;;
81841;SDS011;71284;50.918;7.092;2023-10-08T04:27:39;3.50;;;3.20;;
81841;SDS011;71284;50.918;7.092;2023-10-08T04:30:06;4.80;;;3.00;;
81841;SDS011;71284;50.918;7.092;2023-10-08T04:32:33;5.57;;;3.50;;
81841;SDS011;71284;50.918;7.092;2023-10-08T04:34:59;4.10;;;2.80;;
81841;SDS011;71284;50.918;7.092;2023-10-08T04:37:26;6.93;;;3.43;;
81841;SDS011;71284;50.918;7.092;2023-10-08T04:39:52;4.87;;;3.27;;
81841;SDS011;71284;50.918;7.092;2023-10-08T04:42:19;5.77;;;3.20;;
81841;SDS011;71284;50.918;7.092;2023-10-08T04:44:46;4.10;;;2.77;;
81841;SDS011;71284;50.918;7.092;2023-10-08T04:47:13;4.17;;;3.17;;
81841;SDS011;71284;50.918;7.092;2023-10-08T04:49:40;5.63;;;3.17;;
81841;SDS011;71284;50.918;7.092;2023-10-08T04:52:07;3.70;;;2.80;;
81841;SDS011;71284;50.918;7.092;2023-10-08T04:54:35;3.67;;;2.10;;
81841;SDS011;71284;50.918;7.092;2023-10-08T04:57:01;6.40;;;3.93;;
81841;SDS011;71284;50.918;7.092;2023-10-08T04:59:28;3.10;;;2.70;;
81841;SDS011;71284;50.918;7.092;2023-10-08T05:01:58;2.37;;;2.17;;
81841;SDS011;71284;50.918;7.092;2023-10-08T05:04:33;5.70;;;3.50;;
81841;SDS011;71284;50.918;7.092;2023-10-08T05:06:59;8.03;;;2.90;;
81841;SDS011;71284;50.918;7.092;2023-10-08T05:09:27;6.20;;;3.33;;
81841;SDS011;71284;50.918;7.092;2023-10-08T05:12:08;5.13;;;3.03;;
81841;SDS011;71284;50.918;7.092;2023-10-08T05:14:50;3.37;;;2.97;;
81841;SDS011;71284;50.918;7.092;2023-10-08T05:17:31;8.40;;;3.03;;
81841;SDS011;71284;50.918;7.092;2023-10-08T05:19:58;3.70;;;3.40;;
81841;SDS011;71284;50.918;7.092;2023-10-08T05:22:30;3.90;;;3.50;;
81841;SDS011;71284;50.918;7.092;2023-10-08T05:25:11;4.37;;;2.93;;
81841;SDS011;71284;50.918;7.092;2023-10-08T05:27:41;3.30;;;2.87;;
81841;SDS011;71284;50.918;7.092;2023-10-08T05:30:12;7.43;;;2.93;;
81841;SDS011;71284;50.918;7.092;2023-10-08T05:32:41;9.40;;;3.47;;
81841;SDS011;71284;50.918;7.092;2023-10-08T05:35:13;5.03;;;2.83;;
81841;SDS011;71284;50.918;7.092;2023-10-08T05:37:45;3.87;;;3.03;;
81841;SDS011;71284;50.918;7.092;2023-10-08T05:40:12;4.60;;;2.87;;
81841;SDS011;71284;50.918;7.092;2023-10-08T05:42:39;7.23;;;3.53;;
81841;SDS011;71284;50.918;7.092;2023-10-08T05:45:05;4.80;;;2.90;;
81841;SDS011;71284;50.918;7.092;2023-10-08T05:47:44;13.20;;;3.60;;
81841;SDS011;71284;50.918;7.092;2023-10-08T05:50:10;2.93;;;2.43;;
81841;SDS011;71284;50.918;7.092;2023-10-08T05:52:57;5.97;;;3.10;;
81841;SDS011;71284;50.918;7.092;2023-10-08T05:55:30;2.90;;;2.40;;
81841;SDS011;71284;50.918;7.092;2023-10-08T05:58:02;9.23;;;3.50;;
81841;SDS011;71284;50.918;7.092;2023-10-08T06:00:34;5.63;;;3.70;;
81841;SDS011;71284;50.918;7.092;2023-10-08T06:03:07;6.03;;;3.13;;
81841;SDS011;71284;50.918;7.092;2023-10-08T06:05:36;2.83;;;2.50;;
81841;SDS011;71284;50.918;7.092;2023-10-08T06:08:02;3.43;;;3.10;;
81841;SDS011;71284;50.918;7.092;2023-10-08T06:10:35;4.93;;;3.00;;
81841;SDS011;71284;50.918;7.092;2023-10-08T06:13:10;12.10;;;3.37;;
81841;SDS011;71284;50.918;7.092;2023-10-08T06:15:43;4.40;;;3.47;;
81841;SDS011;71284;50.918;7.092;2023-10-08T06:18:15;5.43;;;3.27;;
81841;SDS011;71284;50.918;7.092;2023-10-08T06:20:42;5.83;;;3.00;;
81841;SDS011;71284;50.918;7.092;2023-10-08T06:23:09;10.60;;;3.47;;
81841;SDS011;71284;50.918;7.092;2023-10-08T06:25:35;6.83;;;3.50;;
81841;SDS011;71284;50.918;7.092;2023-10-08T06:28:17;6.23;;;2.83;;
81841;SDS011;71284;50.918;7.092;2023-10-08T06:30:46;3.93;;;3.13;;
81841;SDS011;71284;50.918;7.092;2023-10-08T06:33:13;4.50;;;3.00;;
81841;SDS011;71284;50.918;7.092;2023-10-08T06:35:40;3.27;;;2.97;;
81841;SDS011;71284;50.918;7.092;2023-10-08T06:38:09;4.70;;;3.47;;
81841;SDS011;71284;50.918;7.092;2023-10-08T06:40:36;6.90;;;4.50;;
81841;SDS011;71284;50.918;7.092;2023-10-08T06:43:02;5.80;;;3.47;;
81841;SDS011;71284;50.918;7.092;2023-10-08T06:45:29;4.10;;;2.63;;
81841;SDS011;71284;50.918;7.092;2023-10-08T06:47:56;3.00;;;2.77;;
81841;SDS011;71284;50.918;7.092;2023-10-08T06:50:22;5.80;;;3.37;;
81841;SDS011;71284;50.918;7.092;2023-10-08T06:52:49;5.60;;;3.20;;
81841;SDS011;71284;50.918;7.092;2023-10-08T06:55:15;6.50;;;2.73;;
81841;SDS011;71284;50.918;7.092;2023-10-08T06:57:42;3.53;;;2.63;;
81841;SDS011;71284;50.918;7.092;2023-10-08T07:00:09;5.23;;;2.63;;
81841;SDS011;71284;50.918;7.092;2023-10-08T07:02:36;3.50;;;2.70;;
81841;SDS011;71284;50.918;7.092;2023-10-08T07:05:02;2.87;;;2.67;;
81841;SDS011;71284;50.918;7.092;2023-10-08T07:07:29;4.90;;;3.40;;
81841;SDS011;71284;50.918;7.092;2023-10-08T07:09:56;3.63;;;2.90;;
81841;SDS011;71284;50.918;7.092;2023-10-08T07:12:22;9.23;;;5.63;;
81841;SDS011;71284;50.918;7.092;2023-10-08T07:14:49;3.63;;;3.33;;
81841;SDS011;71284;50.918;7.092;2023-10-08T07:17:15;5.90;;;3.63;;
81841;SDS011;71284;50.918;7.092;2023-10-08T07:19:42;19.53;;;3.40;;
81841;SDS011;71284;50.918;7.092;2023-10-08T07:22:09;6.83;;;2.87;;
81841;SDS011;71284;50.918;7.092;2023-10-08T07:24:41;5.47;;;2.97;;
81841;SDS011;71284;50.918;7.092;2023-10-08T07:27:07;7.40;;;3.00;;
81841;SDS011;71284;50.918;7.092;2023-10-08T07:29:35;9.70;;;4.00;;
81841;SDS011;71284;50.918;7.092;2023-10-08T07:32:01;13.73;;;3.40;;
81841;SDS011;71284;50.918;7.092;2023-10-08T07:34:27;5.57;;;3.10;;
81841;SDS011;71284;50.918;7.092;2023-10-08T07:36:54;4.67;;;2.50;;
81841;SDS011;71284;50.918;7.092;2023-10-08T07:39:21;5.37;;;2.97;;
81841;SDS011;71284;50.918;7.092;2023-10-08T07:41:49;4.13;;;2.67;;
81841;SDS011;71284;50.918;7.092;2023-10-08T07:44:15;5.40;;;3.33;;
81841;SDS011;71284;50.918;7.092;2023-10-08T07:46:42;6.93;;;3.80;;
81841;SDS011;71284;50.918;7.092;2023-10-08T07:49:08;5.73;;;2.70;;
81841;SDS011;71284;50.918;7.092;2023-10-08T07:51:35;4.63;;;3.43;;
81841;SDS011;71284;50.918;7.092;2023-10-08T07:54:01;4.17;;;3.27;;
81841;SDS011;71284;50.918;7.092;2023-10-08T07:56:28;8.30;;;2.87;;
81841;SDS011;71284;50.918;7.092;2023-10-08T07:58:55;4.50;;;3.00;;
81841;SDS011;71284;50.918;7.092;2023-10-08T08:01:22;4.90;;;3.40;;
81841;SDS011;71284;50.918;7.092;2023-10-08T08:03:48;4.50;;;2.80;;
81841;SDS011;71284;50.918;7.092;2023-10-08T08:06:14;4.13;;;3.37;;
81841;SDS011;71284;50.918;7.092;2023-10-08T08:08:41;4.93;;;3.67;;
81841;SDS011;71284;50.918;7.092;2023-10-08T08:11:08;3.50;;;2.83;;
81841;SDS011;71284;50.918;7.092;2023-10-08T08:13:39;3.93;;;2.90;;
81841;SDS011;71284;50.918;7.092;2023-10-08T08:16:05;7.07;;;3.33;;
81841;SDS011;71284;50.918;7.092;2023-10-08T08:18:36;3.93;;;3.17;;
81841;SDS011;71284;50.918;7.092;2023-10-08T08:21:02;3.67;;;2.43;;
81841;SDS011;71284;50.918;7.092;2023-10-08T08:23:29;5.63;;;2.87;;
81841;SDS011;71284;50.918;7.092;2023-10-08T08:25:55;9.03;;;5.10;;
81841;SDS011;71284;50.918;7.092;2023-10-08T08:28:37;4.50;;;2.70;;
81841;SDS011;71284;50.918;7.092;2023-10-08T08:31:04;6.10;;;4.30;;
81841;SDS011;71284;50.918;7.092;2023-10-08T08:33:31;4.10;;;2.77;;
81841;SDS011;71284;50.918;7.092;2023-10-08T08:35:58;7.20;;;3.73;;
81841;SDS011;71284;50.918;7.092;2023-10-08T08:38:24;6.30;;;3.87;;
81841;SDS011;71284;50.918;7.092;2023-10-08T08:40:51;9.50;;;3.53;;
81841;SDS011;71284;50.918;7.092;2023-10-08T08:43:17;4.60;;;3.47;;
81841;SDS011;71284;50.918;7.092;2023-10-08T08:45:44;6.80;;;3.87;;
81841;SDS011;71284;50.918;7.092;2023-10-08T08:48:10;4.10;;;3.00;;
81841;SDS011;71284;50.918;7.092;2023-10-08T08:50:37;7.23;;;3.50;;
81841;SDS011;71284;50.918;7.092;2023-10-08T08:53:04;6.37;;;3.70;;
81841;SDS011;71284;50.918;7.092;2023-10-08T08:55:31;6.40;;;3.53;;
81841;SDS011;71284;50.918;7.092;2023-10-08T08:57:57;3.70;;;2.90;;
81841;SDS011;71284;50.918;7.092;2023-10-08T09:00:23;8.13;;;4.47;;
81841;SDS011;71284;50.918;7.092;2023-10-08T09:02:50;3.83;;;3.10;;
81841;SDS011;71284;50.918;7.092;2023-10-08T09:05:17;10.83;;;3.57;;
81841;SDS011;71284;50.918;7.092;2023-10-08T09:07:56;5.30;;;3.30;;
81841;SDS011;71284;50.918;7.092;2023-10-08T09:10:22;17.67;;;5.27;;
81841;SDS011;71284;50.918;7.092;2023-10-08T09:12:55;4.50;;;2.80;;
81841;SDS011;71284;50.918;7.092;2023-10-08T09:15:25;5.40;;;2.90;;
81841;SDS011;71284;50.918;7.092;2023-10-08T09:17:52;8.00;;;5.13;;
81841;SDS011;71284;50.918;7.092;2023-10-08T09:20:19;7.70;;;3.40;;
81841;SDS011;71284;50.918;7.092;2023-10-08T09:22:45;7.33;;;3.50;;
81841;SDS011;71284;50.918;7.092;2023-10-08T09:25:15;8.13;;;3.77;;
81841;SDS011;71284;50.918;7.092;2023-10-08T09:27:41;8.23;;;3.60;;
81841;SDS011;71284;50.918;7.092;2023-10-08T09:30:07;9.60;;;3.80;;
81841;SDS011;71284;50.918;7.092;2023-10-08T09:32:34;5.57;;;3.10;;
81841;SDS011;71284;50.918;7.092;2023-10-08T09:35:01;13.40;;;4.17;;
81841;SDS011;71284;50.918;7.092;2023-10-08T09:37:27;6.53;;;4.60;;
81841;SDS011;71284;50.918;7.092;2023-10-08T09:39:54;9.40;;;3.53;;
81841;SDS011;71284;50.918;7.092;2023-10-08T09:42:20;16.00;;;4.60;;
81841;SDS011;71284;50.918;7.092;2023-10-08T09:44:47;10.40;;;4.30;;
81841;SDS011;71284;50.918;7.092;2023-10-08T09:47:15;14.63;;;4.67;;
81841;SDS011;71284;50.918;7.092;2023-10-08T09:49:41;13.60;;;4.87;;
81841;SDS011;71284;50.918;7.092;2023-10-08T09:52:08;11.67;;;5.57;;
81841;SDS011;71284;50.918;7.092;2023-10-08T09:54:37;13.70;;;4.70;;
81841;SDS011;71284;50.918;7.092;2023-10-08T09:57:02;11.03;;;4.57;;
81841;SDS011;71284;50.918;7.092;2023-10-08T09:59:28;6.83;;;4.23;;
81841;SDS011;71284;50.918;7.092;2023-10-08T10:01:55;14.40;;;4.80;;
81841;SDS011;71284;50.918;7.092;2023-10-08T10:04:22;11.03;;;4.87;;
81841;SDS011;71284;50.918;7.092;2023-10-08T10:06:48;8.47;;;4.70;;
81841;SDS011;71284;50.918;7.092;2023-10-08T10:09:30;11.03;;;4.40;;
81841;SDS011;71284;50.918;7.092;2023-10-08T10:11:56;11.70;;;4.20;;
81841;SDS011;71284;50.918;7.092;2023-10-08T10:14:23;11.27;;;5.30;;
81841;SDS011;71284;50.918;7.092;2023-10-08T10:17:07;14.13;;;4.87;;
81841;SDS011;71284;50.918;7.092;2023-10-08T10:19:30;14.67;;;6.20;;
81841;SDS011;71284;50.918;7.092;2023-10-08T10:21:57;63.97;;;23.40;;
81841;SDS011;71284;50.918;7.092;2023-10-08T10:24:32;39.67;;;13.30;;
81841;SDS011;71284;50.918;7.092;2023-10-08T10:27:09;10.90;;;5.20;;
81841;SDS011;71284;50.918;7.092;2023-10-08T10:29:21;14.93;;;6.70;;
81841;SDS011;71284;50.918;7.092;2023-10-08T10:31:48;15.00;;;5.47;;
81841;SDS011;71284;50.918;7.092;2023-10-08T10:34:15;14.00;;;5.60;;
81841;SDS011;71284;50.918;7.092;2023-10-08T10:36:45;13.60;;;5.13;;
81841;SDS011;71284;50.918;7.092;2023-10-08T10:39:10;6.30;;;3.80;;
81841;SDS011;71284;50.918;7.092;2023-10-08T10:41:43;22.63;;;5.10;;
81841;SDS011;71284;50.918;7.092;2023-10-08T10:44:11;21.30;;;6.93;;
81841;SDS011;71284;50.918;7.092;2023-10-08T10:46:36;15.37;;;5.60;;
81841;SDS011;71284;50.918;7.092;2023-10-08T10:49:03;12.93;;;5.00;;
81841;SDS011;71284;50.918;7.092;2023-10-08T10:51:35;9.93;;;5.23;;
81841;SDS011;71284;50.918;7.092;2023-10-08T10:54:02;13.57;;;5.83;;
81841;SDS011;71284;50.918;7.092;2023-10-08T10:56:29;13.07;;;6.00;;
81841;SDS011;71284;50.918;7.092;2023-10-08T10:58:59;18.60;;;6.27;;
81841;SDS011;71284;50.918;7.092;2023-10-08T11:01:26;13.30;;;5.67;;
81841;SDS011;71284;50.918;7.092;2023-10-08T11:03:52;20.43;;;5.40;;
81841;SDS011;71284;50.918;7.092;2023-10-08T11:06:19;12.53;;;5.10;;
81841;SDS011;71284;50.918;7.092;2023-10-08T11:08:45;23.57;;;8.13;;
81841;SDS011;71284;50.918;7.092;2023-10-08T11:11:12;15.20;;;5.03;;
81841;SDS011;71284;50.918;7.092;2023-10-08T11:13:39;16.33;;;6.03;;
81841;SDS011;71284;50.918;7.092;2023-10-08T11:16:06;14.77;;;6.47;;
81841;SDS011;71284;50.918;7.092;2023-10-08T11:18:32;18.83;;;5.10;;
81841;SDS011;71284;50.918;7.092;2023-10-08T11:23:31;15.03;;;5.90;;
81841;SDS011;71284;50.918;7.092;2023-10-08T11:26:00;12.80;;;5.93;;
81841;SDS011;71284;50.918;7.092;2023-10-08T11:28:26;16.43;;;7.50;;
81841;SDS011;71284;50.918;7.092;2023-10-08T11:30:52;13.87;;;5.80;;
81841;SDS011;71284;50.918;7.092;2023-10-08T11:33:19;13.47;;;6.23;;
81841;SDS011;71284;50.918;7.092;2023-10-08T11:38:22;15.57;;;6.40;;
81841;SDS011;71284;50.918;7.092;2023-10-08T11:40:48;16.27;;;6.87;;
81841;SDS011;71284;50.918;7.092;2023-10-08T11:43:15;19.03;;;7.07;;
81841;SDS011;71284;50.918;7.092;2023-10-08T11:45:42;17.23;;;7.20;;
81841;SDS011;71284;50.918;7.092;2023-10-08T11:48:08;15.10;;;5.90;;
81841;SDS011;71284;50.918;7.092;2023-10-08T11:50:38;19.57;;;7.20;;
81841;SDS011;71284;50.918;7.092;2023-10-08T11:53:04;21.33;;;5.83;;
81841;SDS011;71284;50.918;7.092;2023-10-08T11:55:33;26.23;;;7.00;;
81841;SDS011;71284;50.918;7.092;2023-10-08T11:58:01;19.63;;;6.53;;
81841;SDS011;71284;50.918;7.092;2023-10-08T12:00:27;20.10;;;7.63;;
81841;SDS011;71284;50.918;7.092;2023-10-08T12:02:54;24.90;;;7.17;;
81841;SDS011;71284;50.918;7.092;2023-10-08T12:05:21;18.23;;;7.53;;
81841;SDS011;71284;50.918;7.092;2023-10-08T12:07:50;15.53;;;6.57;;
81841;SDS011;71284;50.918;7.092;2023-10-08T12:10:17;14.60;;;5.93;;
81841;SDS011;71284;50.918;7.092;2023-10-08T12:12:43;24.57;;;7.40;;
81841;SDS011;71284;50.918;7.092;2023-10-08T12:15:10;28.60;;;8.03;;
81841;SDS011;71284;50.918;7.092;2023-10-08T12:17:36;18.60;;;7.33;;
81841;SDS011;71284;50.918;7.092;2023-10-08T12:20:03;27.70;;;7.13;;
81841;SDS011;71284;50.918;7.092;2023-10-08T12:22:30;17.47;;;6.90;;
81841;SDS011;71284;50.918;7.092;2023-10-08T12:24:56;17.50;;;6.80;;
81841;SDS011;71284;50.918;7.092;2023-10-08T12:27:23;19.47;;;7.27;;
81841;SDS011;71284;50.918;7.092;2023-10-08T12:29:50;10.57;;;6.77;;
81841;SDS011;71284;50.918;7.092;2023-10-08T12:32:16;14.37;;;6.90;;
81841;SDS011;71284;50.918;7.092;2023-10-08T12:34:43;17.80;;;7.63;;
81841;SDS011;71284;50.918;7.092;2023-10-08T12:37:09;13.80;;;6.47;;
81841;SDS011;71284;50.918;7.092;2023-10-08T12:39:36;14.83;;;7.97;;
81841;SDS011;71284;50.918;7.092;2023-10-08T12:42:03;10.43;;;6.50;;
81841;SDS011;71284;50.918;7.092;2023-10-08T12:44:29;14.30;;;6.90;;
81841;SDS011;71284;50.918;7.092;2023-10-08T12:46:56;17.43;;;7.80;;
81841;SDS011;71284;50.918;7.092;2023-10-08T12:49:22;20.90;;;8.00;;
81841;SDS011;71284;50.918;7.092;2023-10-08T12:51:49;16.80;;;8.20;;
81841;SDS011;71284;50.918;7.092;2023-10-08T12:54:16;27.40;;;8.73;;
81841;SDS011;71284;50.918;7.092;2023-10-08T12:56:42;19.10;;;8.03;;
81841;SDS011;71284;50.918;7.092;2023-10-08T12:59:11;15.47;;;7.80;;
81841;SDS011;71284;50.918;7.092;2023-10-08T13:01:37;27.70;;;8.90;;
81841;SDS011;71284;50.918;7.092;2023-10-08T13:04:04;20.70;;;8.03;;
81841;SDS011;71284;50.918;7.092;2023-10-08T13:06:34;27.93;;;8.97;;
81841;SDS011;71284;50.918;7.092;2023-10-08T13:09:00;22.80;;;8.23;;
81841;SDS011;71284;50.918;7.092;2023-10-08T13:11:27;19.37;;;7.83;;
81841;SDS011;71284;50.918;7.092;2023-10-08T13:13:53;20.60;;;6.50;;
81841;SDS011;71284;50.918;7.092;2023-10-08T13:16:22;16.57;;;8.30;;
81841;SDS011;71284;50.918;7.092;2023-10-08T13:18:49;22.80;;;6.53;;
81841;SDS011;71284;50.918;7.092;2023-10-08T13:21:15;15.10;;;7.43;;
81841;SDS011;71284;50.918;7.092;2023-10-08T13:23:42;15.30;;;8.07;;
81841;SDS011;71284;50.918;7.092;2023-10-08T13:26:08;15.60;;;6.37;;
81841;SDS011;71284;50.918;7.092;2023-10-08T13:28:35;27.37;;;7.07;;
81841;SDS011;71284;50.918;7.092;2023-10-08T13:31:02;15.93;;;7.20;;
81841;SDS011;71284;50.918;7.092;2023-10-08T13:33:29;26.90;;;6.20;;
81841;SDS011;71284;50.918;7.092;2023-10-08T13:35:56;17.17;;;8.30;;
81841;SDS011;71284;50.918;7.092;2023-10-08T13:38:22;13.80;;;6.10;;
81841;SDS011;71284;50.918;7.092;2023-10-08T13:40:49;20.03;;;7.03;;
81841;SDS011;71284;50.918;7.092;2023-10-08T13:43:29;11.23;;;6.87;;
81841;SDS011;71284;50.918;7.092;2023-10-08T13:46:03;15.63;;;7.03;;
81841;SDS011;71284;50.918;7.092;2023-10-08T13:48:31;15.40;;;7.83;;
81841;SDS011;71284;50.918;7.092;2023-10-08T13:50:57;17.00;;;7.10;;
81841;SDS011;71284;50.918;7.092;2023-10-08T13:53:23;18.87;;;7.40;;
81841;SDS011;71284;50.918;7.092;2023-10-08T13:55:50;16.50;;;6.90;;
81841;SDS011;71284;50.918;7.092;2023-10-08T13:58:17;17.33;;;7.43;;
81841;SDS011;71284;50.918;7.092;2023-10-08T14:00:43;14.97;;;7.10;;
81841;SDS011;71284;50.918;7.092;2023-10-08T14:03:10;15.07;;;7.70;;
81841;SDS011;71284;50.918;7.092;2023-10-08T14:05:36;22.43;;;6.77;;
81841;SDS011;71284;50.918;7.092;2023-10-08T14:08:03;12.23;;;6.80;;
81841;SDS011;71284;50.918;7.092;2023-10-08T14:10:30;13.30;;;6.50;;
81841;SDS011;71284;50.918;7.092;2023-10-08T14:12:56;18.10;;;8.00;;
81841;SDS011;71284;50.918;7.092;2023-10-08T14:15:23;18.47;;;7.17;;
81841;SDS011;71284;50.918;7.092;2023-10-08T14:17:50;17.37;;;8.30;;
81841;SDS011;71284;50.918;7.092;2023-10-08T14:20:16;12.47;;;7.17;;
81841;SDS011;71284;50.918;7.092;2023-10-08T14:22:43;14.30;;;6.23;;
81841;SDS011;71284;50.918;7.092;2023-10-08T14:25:09;17.33;;;7.27;;
81841;SDS011;71284;50.918;7.092;2023-10-08T14:27:38;17.17;;;6.03;;
81841;SDS011;71284;50.918;7.092;2023-10-08T14:30:07;16.57;;;7.50;;
81841;SDS011;71284;50.918;7.092;2023-10-08T14:32:33;14.87;;;7.53;;
81841;SDS011;71284;50.918;7.092;2023-10-08T14:35:00;15.43;;;6.57;;
81841;SDS011;71284;50.918;7.092;2023-10-08T14:37:32;13.53;;;5.83;;
81841;SDS011;71284;50.918;7.092;2023-10-08T14:40:05;9.63;;;6.30;;
81841;SDS011;71284;50.918;7.092;2023-10-08T14:42:37;13.20;;;6.73;;
81841;SDS011;71284;50.918;7.092;2023-10-08T14:45:10;11.77;;;6.70;;
81841;SDS011;71284;50.918;7.092;2023-10-08T14:47:38;23.13;;;7.67;;
81841;SDS011;71284;50.918;7.092;2023-10-08T14:50:04;16.50;;;7.13;;
81841;SDS011;71284;50.918;7.092;2023-10-08T14:52:31;14.73;;;5.97;;
81841;SDS011;71284;50.918;7.092;2023-10-08T14:54:57;20.03;;;7.03;;